createdAt,value
2018-04-22T00:00:46.197Z,17.4
2018-04-22T00:01:36.258Z,17.4
2018-04-22T00:02:26.035Z,17.4
2018-04-22T00:03:16.665Z,17.4
2018-04-22T00:04:06.745Z,17.4
2018-04-22T00:04:56.904Z,17.5
2018-04-22T00:05:46.843Z,17.5
2018-04-22T00:06:36.906Z,17.4
2018-04-22T00:07:26.783Z,17.4
2018-04-22T00:08:17.058Z,17.4
2018-04-22T00:09:06.565Z,17.4
2018-04-22T00:09:57.165Z,17.5
2018-04-22T00:10:46.938Z,17.4
2018-04-22T00:11:37.014Z,17.5
2018-04-22T00:12:27.069Z,17.5
2018-04-22T00:13:16.880Z,17.5
2018-04-22T00:14:07.465Z,17.5
2018-04-22T00:14:57.567Z,17.5
2018-04-22T00:15:47.426Z,17.4
2018-04-22T00:16:37.422Z,17.5
2018-04-22T00:17:27.196Z,17.5
2018-04-22T00:18:17.517Z,17.5
2018-04-22T00:19:07.856Z,17.5
2018-04-22T00:19:57.916Z,17.5
2018-04-22T00:20:47.420Z,17.5
2018-04-22T00:21:38.065Z,17.5
2018-04-22T00:22:27.849Z,17.5
2018-04-22T00:23:18.153Z,17.5
2018-04-22T00:24:08.231Z,17.5
2018-04-22T00:24:58.316Z,17.5
2018-04-22T00:25:47.811Z,17.5
2018-04-22T00:26:38.160Z,17.5
2018-04-22T00:27:28.491Z,17.5
2018-04-22T00:28:18.554Z,17.5
2018-04-22T00:29:08.351Z,17.5
2018-04-22T00:29:58.435Z,17.5
2018-04-22T00:30:48.804Z,17.5
2018-04-22T00:31:37.987Z,17.5
2018-04-22T00:32:28.880Z,17.5
2018-04-22T00:33:18.652Z,17.5
2018-04-22T00:34:08.453Z,17.5
2018-04-22T00:34:58.588Z,17.6
2018-04-22T00:35:48.592Z,17.5
2018-04-22T00:36:39.202Z,17.6
2018-04-22T00:37:28.717Z,17.5
2018-04-22T00:38:19.055Z,17.5
2018-04-22T00:39:09.374Z,17.6
2018-04-22T00:39:59.171Z,17.6
2018-04-22T00:40:49.269Z,17.6
2018-04-22T00:41:39.019Z,17.5
2018-04-22T00:42:28.814Z,17.5
2018-04-22T00:43:19.432Z,17.6
2018-04-22T00:44:09.492Z,17.6
2018-04-22T00:44:59.863Z,17.6
2018-04-22T00:45:49.670Z,17.6
2018-04-22T00:46:39.945Z,17.6
2018-04-22T00:47:28.884Z,17.6
2018-04-22T00:48:20.089Z,17.6
2018-04-22T00:49:10.140Z,17.6
2018-04-22T00:49:59.921Z,17.6
2018-04-22T00:50:50.274Z,17.6
2018-04-22T00:51:40.341Z,17.6
2018-04-22T00:52:29.888Z,17.6
2018-04-22T00:53:20.438Z,17.6
2018-04-22T00:54:10.236Z,17.6
2018-04-22T00:55:00.305Z,17.6
2018-04-22T00:55:50.415Z,17.6
2018-04-22T00:56:40.723Z,17.6
2018-04-22T00:57:30.508Z,17.6
2018-04-22T00:58:20.571Z,17.6
2018-04-22T00:59:10.350Z,17.6
2018-04-22T01:00:00.725Z,17.6
2018-04-22T01:00:51.021Z,17.6
2018-04-22T01:01:40.844Z,17.6
2018-04-22T01:02:30.889Z,17.6
2018-04-22T01:03:21.260Z,17.6
2018-04-22T01:04:11.342Z,17.6
2018-04-22T01:05:00.811Z,17.6
2018-04-22T01:05:50.866Z,17.6
2018-04-22T01:06:41.216Z,17.6
2018-04-22T01:07:31.264Z,17.6
2018-04-22T01:08:21.333Z,17.6
2018-04-22T01:09:11.115Z,17.6
2018-04-22T01:10:01.748Z,17.6
2018-04-22T01:10:51.561Z,17.6
2018-04-22T01:11:41.858Z,17.6
2018-04-22T01:12:31.663Z,17.6
2018-04-22T01:13:21.960Z,17.6
2018-04-22T01:14:11.795Z,17.6
2018-04-22T01:15:01.631Z,17.6
2018-04-22T01:15:51.428Z,17.6
2018-04-22T01:16:41.772Z,17.6
2018-04-22T01:17:31.765Z,17.6
2018-04-22T01:18:21.880Z,17.6
2018-04-22T01:19:11.663Z,17.6
2018-04-22T01:20:01.726Z,17.6
2018-04-22T01:20:52.088Z,17.6
2018-04-22T01:21:42.149Z,17.6
2018-04-22T01:22:32.702Z,17.6
2018-04-22T01:23:22.483Z,17.6
2018-04-22T01:24:12.067Z,17.6
2018-04-22T01:25:02.126Z,17.6
2018-04-22T01:25:52.671Z,17.6
2018-04-22T01:26:42.499Z,17.6
2018-04-22T01:27:32.207Z,17.6
2018-04-22T01:28:22.860Z,17.6
2018-04-22T01:29:12.658Z,17.6
2018-04-22T01:30:02.986Z,17.6
2018-04-22T01:30:53.306Z,17.6
2018-04-22T01:31:43.375Z,17.6
2018-04-22T01:32:32.610Z,17.6
2018-04-22T01:33:22.723Z,17.6
2018-04-22T01:34:13.565Z,17.6
2018-04-22T01:35:03.638Z,17.6
2018-04-22T01:35:53.703Z,17.6
2018-04-22T01:36:43.518Z,17.6
2018-04-22T01:37:32.981Z,17.6
2018-04-22T01:38:23.610Z,17.6
2018-04-22T01:39:13.749Z,17.6
2018-04-22T01:40:04.065Z,17.6
2018-04-22T01:40:53.806Z,17.6
2018-04-22T01:41:43.888Z,17.6
2018-04-22T01:42:33.374Z,17.6
2018-04-22T01:43:23.993Z,17.6
2018-04-22T01:44:13.771Z,17.6
2018-04-22T01:45:04.133Z,17.6
2018-04-22T01:45:54.436Z,17.6
2018-04-22T01:46:44.235Z,17.7
2018-04-22T01:47:34.598Z,17.6
2018-04-22T01:48:24.375Z,17.6
2018-04-22T01:49:14.723Z,17.6
2018-04-22T01:50:04.520Z,17.7
2018-04-22T01:50:54.840Z,17.7
2018-04-22T01:51:44.620Z,17.7
2018-04-22T01:52:34.410Z,17.7
2018-04-22T01:53:25.027Z,17.7
2018-04-22T01:54:14.819Z,17.7
2018-04-22T01:55:04.609Z,17.7
2018-04-22T01:55:55.247Z,17.7
2018-04-22T01:56:45.286Z,17.7
2018-04-22T01:57:35.362Z,17.7
2018-04-22T01:58:25.151Z,17.7
2018-04-22T01:59:14.928Z,17.7
2018-04-22T02:00:05.311Z,17.7
2018-04-22T02:00:55.065Z,17.7
2018-04-22T02:01:45.112Z,17.7
2018-04-22T02:02:35.734Z,17.7
2018-04-22T02:03:25.529Z,17.7
2018-04-22T02:04:15.882Z,17.7
2018-04-22T02:05:05.959Z,17.7
2018-04-22T02:05:55.475Z,17.7
2018-04-22T02:06:46.055Z,17.7
2018-04-22T02:07:36.151Z,17.7
2018-04-22T02:08:26.203Z,17.7
2018-04-22T02:09:15.978Z,17.7
2018-04-22T02:10:05.759Z,17.7
2018-04-22T02:10:56.394Z,17.7
2018-04-22T02:11:45.938Z,17.7
2018-04-22T02:12:35.457Z,17.7
2018-04-22T02:13:25.796Z,17.7
2018-04-22T02:14:16.162Z,17.7
2018-04-22T02:15:06.749Z,17.7
2018-04-22T02:15:56.480Z,17.7
2018-04-22T02:16:46.801Z,17.7
2018-04-22T02:17:36.881Z,17.7
2018-04-22T02:18:26.945Z,17.7
2018-04-22T02:19:16.996Z,17.7
2018-04-22T02:20:06.800Z,17.7
2018-04-22T02:20:57.112Z,17.7
2018-04-22T02:21:46.364Z,17.7
2018-04-22T02:22:36.989Z,17.7
2018-04-22T02:23:27.292Z,17.8
2018-04-22T02:24:17.105Z,17.7
2018-04-22T02:25:06.876Z,17.7
2018-04-22T02:25:57.532Z,17.7
2018-04-22T02:26:47.337Z,17.8
2018-04-22T02:27:37.380Z,17.7
2018-04-22T02:28:27.138Z,17.8
2018-04-22T02:29:17.481Z,17.8
2018-04-22T02:30:07.567Z,17.8
2018-04-22T02:30:57.925Z,17.8
2018-04-22T02:31:47.400Z,17.8
2018-04-22T02:32:38.082Z,17.7
2018-04-22T02:33:28.080Z,17.8
2018-04-22T02:34:17.885Z,17.7
2018-04-22T02:35:08.239Z,17.8
2018-04-22T02:35:58.302Z,17.8
2018-04-22T02:36:48.043Z,17.8
2018-04-22T02:37:37.883Z,17.8
2018-04-22T02:38:28.511Z,17.8
2018-04-22T02:39:18.528Z,17.8
2018-04-22T02:40:08.581Z,17.8
2018-04-22T02:40:58.096Z,17.8
2018-04-22T02:41:48.170Z,17.8
2018-04-22T02:42:38.792Z,17.8
2018-04-22T02:43:28.610Z,17.8
2018-04-22T02:44:18.359Z,17.8
2018-04-22T02:45:08.409Z,17.8
2018-04-22T02:45:59.080Z,17.8
2018-04-22T02:46:48.843Z,17.8
2018-04-22T02:47:38.602Z,17.8
2018-04-22T02:48:28.673Z,17.8
2018-04-22T02:49:19.276Z,17.8
2018-04-22T02:50:09.086Z,17.8
2018-04-22T02:50:59.459Z,17.8
2018-04-22T02:51:49.225Z,17.8
2018-04-22T02:52:38.974Z,17.8
2018-04-22T02:53:28.494Z,17.8
2018-04-22T02:54:19.404Z,17.8
2018-04-22T02:55:09.456Z,17.8
2018-04-22T02:55:59.515Z,17.8
2018-04-22T02:56:49.330Z,17.8
2018-04-22T02:57:39.660Z,17.8
2018-04-22T02:58:29.725Z,17.8
2018-04-22T02:59:20.024Z,17.8
2018-04-22T03:00:10.110Z,17.8
2018-04-22T03:00:59.903Z,17.8
2018-04-22T03:01:50.011Z,17.8
2018-04-22T03:02:39.752Z,17.8
2018-04-22T03:03:29.774Z,17.8
2018-04-22T03:04:20.427Z,17.8
2018-04-22T03:05:10.464Z,17.8
2018-04-22T03:05:59.711Z,17.8
2018-04-22T03:06:50.632Z,17.8
2018-04-22T03:07:39.366Z,17.8
2018-04-22T03:08:30.237Z,17.8
2018-04-22T03:09:20.044Z,17.8
2018-04-22T03:10:10.099Z,17.8
2018-04-22T03:11:00.094Z,17.8
2018-04-22T03:11:51.015Z,17.8
2018-04-22T03:12:41.081Z,17.8
2018-04-22T03:13:30.832Z,17.8
2018-04-22T03:14:20.898Z,17.8
2018-04-22T03:15:11.233Z,17.8
2018-04-22T03:16:01.325Z,17.8
2018-04-22T03:16:50.838Z,17.8
2018-04-22T03:17:41.456Z,17.8
2018-04-22T03:18:31.506Z,17.8
2018-04-22T03:19:21.557Z,17.8
2018-04-22T03:20:11.618Z,17.8
2018-04-22T03:21:00.851Z,17.8
2018-04-22T03:21:51.182Z,17.8
2018-04-22T03:22:40.990Z,17.8
2018-04-22T03:23:30.718Z,17.8
2018-04-22T03:24:21.948Z,17.8
2018-04-22T03:25:11.929Z,17.8
2018-04-22T03:26:01.494Z,17.8
2018-04-22T03:26:52.129Z,17.8
2018-04-22T03:27:41.351Z,17.8
2018-04-22T03:28:31.971Z,17.8
2018-04-22T03:29:21.774Z,17.8
2018-04-22T03:30:12.382Z,17.8
2018-04-22T03:31:02.468Z,17.8
2018-04-22T03:31:52.554Z,17.8
2018-04-22T03:32:42.321Z,17.8
2018-04-22T03:33:32.632Z,17.8
2018-04-22T03:34:22.124Z,17.8
2018-04-22T03:35:12.770Z,17.8
2018-04-22T03:36:02.838Z,17.8
2018-04-22T03:36:52.902Z,17.8
2018-04-22T03:37:42.941Z,17.8
2018-04-22T03:38:32.731Z,17.8
2018-04-22T03:39:23.103Z,17.8
2018-04-22T03:40:13.166Z,17.8
2018-04-22T03:41:03.215Z,17.8
2018-04-22T03:41:52.977Z,17.8
2018-04-22T03:42:42.778Z,17.8
2018-04-22T03:43:33.467Z,17.8
2018-04-22T03:44:23.444Z,17.8
2018-04-22T03:45:13.492Z,17.8
2018-04-22T03:46:03.321Z,17.9
2018-04-22T03:46:53.084Z,17.8
2018-04-22T03:47:42.568Z,17.8
2018-04-22T03:48:33.497Z,17.8
2018-04-22T03:49:23.813Z,17.8
2018-04-22T03:50:13.600Z,17.8
2018-04-22T03:51:03.936Z,17.8
2018-04-22T03:51:54.038Z,17.8
2018-04-22T03:52:43.817Z,17.8
2018-04-22T03:53:33.587Z,17.8
2018-04-22T03:54:24.258Z,17.8
2018-04-22T03:55:13.994Z,17.8
2018-04-22T03:56:04.365Z,17.8
2018-04-22T03:56:53.828Z,17.8
2018-04-22T03:57:44.447Z,17.8
2018-04-22T03:58:34.263Z,17.8
2018-04-22T03:59:24.042Z,17.8
2018-04-22T04:00:14.637Z,17.8
2018-04-22T04:01:04.693Z,17.8
2018-04-22T04:01:54.240Z,17.9
2018-04-22T04:02:44.019Z,17.8
2018-04-22T04:03:34.607Z,17.8
2018-04-22T04:04:25.002Z,17.8
2018-04-22T04:05:15.031Z,17.8
2018-04-22T04:06:05.123Z,17.8
2018-04-22T04:06:55.188Z,17.8
2018-04-22T04:07:44.935Z,17.8
2018-04-22T04:08:35.306Z,17.9
2018-04-22T04:09:24.774Z,17.8
2018-04-22T04:10:15.122Z,17.8
2018-04-22T04:11:05.483Z,17.8
2018-04-22T04:11:55.259Z,17.9
2018-04-22T04:12:45.610Z,17.9
2018-04-22T04:13:35.674Z,17.8
2018-04-22T04:14:25.731Z,17.9
2018-04-22T04:15:15.774Z,17.9
2018-04-22T04:16:05.573Z,17.9
2018-04-22T04:16:55.948Z,17.9
2018-04-22T04:17:45.465Z,17.9
2018-04-22T04:18:35.767Z,17.9
2018-04-22T04:19:26.228Z,17.9
2018-04-22T04:20:15.903Z,17.9
2018-04-22T04:21:06.224Z,17.9
2018-04-22T04:21:55.776Z,17.9
2018-04-22T04:22:46.351Z,17.9
2018-04-22T04:23:35.880Z,17.9
2018-04-22T04:24:26.471Z,17.9
2018-04-22T04:25:16.035Z,17.9
2018-04-22T04:26:06.635Z,17.9
2018-04-22T04:26:56.406Z,17.9
2018-04-22T04:27:46.804Z,17.9
2018-04-22T04:28:36.294Z,17.9
2018-04-22T04:29:26.617Z,17.9
2018-04-22T04:30:16.370Z,17.9
2018-04-22T04:31:07.010Z,17.9
2018-04-22T04:31:57.054Z,17.9
2018-04-22T04:32:47.111Z,17.9
2018-04-22T04:33:36.898Z,17.9
2018-04-22T04:34:27.268Z,17.9
2018-04-22T04:35:17.343Z,17.9
2018-04-22T04:36:07.695Z,17.9
2018-04-22T04:36:56.637Z,17.9
2018-04-22T04:37:46.946Z,17.9
2018-04-22T04:38:37.573Z,17.9
2018-04-22T04:39:27.369Z,17.9
2018-04-22T04:40:17.889Z,17.9
2018-04-22T04:41:07.211Z,17.9
2018-04-22T04:41:57.534Z,17.9
2018-04-22T04:42:47.870Z,17.9
2018-04-22T04:43:37.967Z,17.9
2018-04-22T04:44:27.724Z,17.9
2018-04-22T04:45:18.073Z,17.9
2018-04-22T04:46:07.555Z,17.9
2018-04-22T04:46:58.180Z,17.9
2018-04-22T04:47:48.247Z,17.9
2018-04-22T04:48:38.302Z,17.9
2018-04-22T04:49:28.177Z,17.9
2018-04-22T04:50:18.481Z,17.9
2018-04-22T04:51:08.539Z,17.9
2018-04-22T04:51:58.013Z,17.9
2018-04-22T04:52:48.694Z,17.9
2018-04-22T04:53:38.686Z,17.9
2018-04-22T04:54:28.721Z,17.9
2018-04-22T04:55:18.886Z,17.9
2018-04-22T04:56:08.929Z,17.9
2018-04-22T04:56:58.393Z,17.9
2018-04-22T04:57:48.716Z,17.9
2018-04-22T04:58:39.086Z,17.9
2018-04-22T04:59:29.160Z,17.9
2018-04-22T05:00:18.868Z,17.9
2018-04-22T05:01:08.998Z,17.9
2018-04-22T05:01:59.348Z,17.9
2018-04-22T05:02:49.146Z,17.9
2018-04-22T05:03:39.467Z,17.9
2018-04-22T05:04:29.269Z,17.9
2018-04-22T05:05:19.320Z,17.9
2018-04-22T05:06:09.429Z,17.9
2018-04-22T05:06:59.703Z,17.9
2018-04-22T05:07:49.195Z,17.9
2018-04-22T05:08:39.556Z,17.9
2018-04-22T05:09:29.892Z,17.9
2018-04-22T05:10:19.473Z,17.9
2018-04-22T05:11:10.095Z,17.9
2018-04-22T05:11:59.571Z,17.9
2018-04-22T05:12:49.602Z,17.9
2018-04-22T05:13:39.659Z,17.9
2018-04-22T05:14:30.023Z,17.9
2018-04-22T05:15:20.068Z,17.9
2018-04-22T05:16:09.832Z,17.9
2018-04-22T05:17:00.240Z,17.9
2018-04-22T05:17:50.261Z,17.9
2018-04-22T05:18:40.438Z,17.9
2018-04-22T05:19:30.701Z,17.9
2018-04-22T05:20:20.156Z,17.9
2018-04-22T05:21:10.254Z,17.9
2018-04-22T05:22:00.883Z,17.9
2018-04-22T05:22:50.641Z,17.9
2018-04-22T05:23:40.953Z,17.9
2018-04-22T05:24:30.772Z,17.9
2018-04-22T05:25:21.095Z,17.9
2018-04-22T05:26:10.617Z,17.9
2018-04-22T05:27:00.990Z,17.9
2018-04-22T05:27:51.011Z,17.9
2018-04-22T05:28:41.355Z,17.9
2018-04-22T05:29:31.411Z,17.9
2018-04-22T05:30:21.189Z,17.9
2018-04-22T05:31:11.911Z,17.9
2018-04-22T05:32:01.598Z,17.9
2018-04-22T05:32:51.665Z,17.9
2018-04-22T05:33:41.758Z,17.9
2018-04-22T05:34:31.811Z,17.9
2018-04-22T05:35:21.861Z,17.9
2018-04-22T05:36:11.641Z,17.9
2018-04-22T05:37:01.991Z,17.9
2018-04-22T05:37:52.058Z,17.9
2018-04-22T05:38:42.090Z,17.9
2018-04-22T05:39:31.890Z,17.9
2018-04-22T05:40:22.232Z,17.9
2018-04-22T05:41:12.044Z,17.9
2018-04-22T05:42:02.374Z,17.9
2018-04-22T05:42:52.430Z,17.9
2018-04-22T05:43:42.214Z,17.9
2018-04-22T05:44:31.999Z,17.9
2018-04-22T05:45:22.314Z,17.9
2018-04-22T05:46:12.436Z,17.9
2018-04-22T05:47:02.752Z,17.9
2018-04-22T05:47:52.835Z,17.9
2018-04-22T05:48:42.973Z,17.9
2018-04-22T05:49:32.937Z,17.9
2018-04-22T05:50:23.007Z,17.9
2018-04-22T05:51:12.227Z,17.9
2018-04-22T05:52:02.871Z,17.9
2018-04-22T05:52:52.922Z,17.9
2018-04-22T05:53:43.251Z,17.9
2018-04-22T05:54:33.315Z,17.9
2018-04-22T05:55:22.800Z,17.9
2018-04-22T05:56:13.443Z,17.9
2018-04-22T05:57:03.223Z,17.9
2018-04-22T05:57:53.027Z,17.9
2018-04-22T05:58:43.624Z,17.9
2018-04-22T05:59:33.416Z,17.9
2018-04-22T06:00:23.211Z,17.9
2018-04-22T06:01:13.286Z,17.9
2018-04-22T06:02:03.886Z,17.9
2018-04-22T06:02:54.252Z,17.9
2018-04-22T06:03:43.724Z,17.9
2018-04-22T06:04:33.251Z,17.9
2018-04-22T06:05:23.871Z,17.9
2018-04-22T06:06:13.952Z,17.9
2018-04-22T06:07:03.429Z,17.9
2018-04-22T06:07:54.359Z,18
2018-04-22T06:08:44.295Z,17.9
2018-04-22T06:09:34.197Z,17.9
2018-04-22T06:10:23.952Z,17.9
2018-04-22T06:11:14.376Z,17.9
2018-04-22T06:12:04.409Z,17.9
2018-04-22T06:12:54.703Z,17.9
2018-04-22T06:13:44.196Z,17.9
2018-04-22T06:14:34.552Z,17.9
2018-04-22T06:15:24.936Z,17.9
2018-04-22T06:16:14.965Z,17.9
2018-04-22T06:17:04.767Z,17.9
2018-04-22T06:17:54.265Z,17.9
2018-04-22T06:18:45.155Z,17.9
2018-04-22T06:19:34.939Z,17.9
2018-04-22T06:20:25.307Z,17.9
2018-04-22T06:21:15.074Z,17.9
2018-04-22T06:22:04.669Z,17.9
2018-04-22T06:22:55.596Z,17.9
2018-04-22T06:23:45.508Z,17.9
2018-04-22T06:24:35.043Z,17.9
2018-04-22T06:25:25.393Z,18
2018-04-22T06:26:15.132Z,17.9
2018-04-22T06:27:05.499Z,17.9
2018-04-22T06:27:55.559Z,17.9
2018-04-22T06:28:45.879Z,17.9
2018-04-22T06:29:35.718Z,17.9
2018-04-22T06:30:26.038Z,17.9
2018-04-22T06:31:15.816Z,17.9
2018-04-22T06:32:05.921Z,18
2018-04-22T06:32:54.069Z,18
2018-04-22T06:33:45.738Z,17.9
2018-04-22T06:34:35.236Z,17.9
2018-04-22T06:35:26.415Z,18
2018-04-22T06:36:15.916Z,18
2018-04-22T06:37:06.264Z,18
2018-04-22T06:37:56.616Z,18
2018-04-22T06:38:46.661Z,18
2018-04-22T06:39:35.907Z,18.1
2018-04-22T06:40:26.798Z,18
2018-04-22T06:41:16.313Z,18
2018-04-22T06:42:06.103Z,18
2018-04-22T06:42:56.741Z,18
2018-04-22T06:43:46.574Z,18
2018-04-22T06:44:36.853Z,18
2018-04-22T06:45:26.899Z,18
2018-04-22T06:46:16.970Z,18
2018-04-22T06:47:07.018Z,18.1
2018-04-22T06:47:56.835Z,18
2018-04-22T06:48:47.185Z,18.1
2018-04-22T06:49:36.635Z,18.1
2018-04-22T06:50:27.577Z,18.1
2018-04-22T06:51:16.781Z,18.2
2018-04-22T06:52:07.137Z,18.2
2018-04-22T06:52:57.761Z,18.2
2018-04-22T06:53:47.251Z,18.2
2018-04-22T06:54:37.584Z,18.2
2018-04-22T06:55:27.959Z,18.2
2018-04-22T06:56:17.527Z,18.2
2018-04-22T06:57:08.090Z,18.2
2018-04-22T06:57:58.165Z,18.2
2018-04-22T06:58:47.919Z,18.2
2018-04-22T06:59:37.974Z,18.2
2018-04-22T07:00:28.341Z,18.2
2018-04-22T07:01:17.829Z,18.2
2018-04-22T07:02:07.606Z,18.3
2018-04-22T07:02:57.684Z,18.4
2018-04-22T07:03:48.025Z,18.6
2018-04-22T07:04:38.694Z,18.6
2018-04-22T07:05:28.871Z,18.6
2018-04-22T07:06:18.227Z,18.6
2018-04-22T07:07:08.274Z,18.6
2018-04-22T07:07:58.645Z,18.6
2018-04-22T07:08:48.976Z,18.6
2018-04-22T07:09:38.759Z,18.6
2018-04-22T07:10:28.266Z,18.6
2018-04-22T07:11:18.864Z,18.6
2018-04-22T07:12:08.979Z,18.6
2018-04-22T07:12:58.562Z,18.6
2018-04-22T07:13:48.519Z,18.6
2018-04-22T07:14:39.146Z,18.8
2018-04-22T07:15:29.516Z,18.9
2018-04-22T07:16:19.606Z,19.1
2018-04-22T07:17:09.363Z,19.2
2018-04-22T07:17:59.665Z,19.3
2018-04-22T07:18:49.186Z,19.4
2018-04-22T07:19:39.864Z,19.4
2018-04-22T07:20:29.906Z,19.5
2018-04-22T07:21:19.467Z,19.6
2018-04-22T07:22:09.723Z,19.7
2018-04-22T07:23:00.042Z,19.8
2018-04-22T07:23:50.142Z,19.9
2018-04-22T07:24:39.886Z,20
2018-04-22T07:25:29.959Z,20.1
2018-04-22T07:26:20.338Z,20.3
2018-04-22T07:27:09.522Z,20.4
2018-04-22T07:28:00.463Z,20.5
2018-04-22T07:28:50.232Z,20.6
2018-04-22T07:29:39.987Z,20.8
2018-04-22T07:30:30.397Z,20.9
2018-04-22T07:31:19.593Z,21
2018-04-22T07:32:59.997Z,21.3
2018-04-22T07:33:50.359Z,21.4
2018-04-22T07:34:40.710Z,21.6
2018-04-22T07:35:29.495Z,21.7
2018-04-22T07:36:20.019Z,21.9
2018-04-22T07:37:10.292Z,22
2018-04-22T07:38:00.434Z,22.1
2018-04-22T07:38:50.750Z,22.3
2018-04-22T07:39:40.300Z,22.4
2018-04-22T07:40:31.159Z,22.5
2018-04-22T07:41:21.222Z,22.6
2018-04-22T07:42:10.998Z,22.8
2018-04-22T07:43:01.634Z,22.9
2018-04-22T07:43:51.127Z,23.1
2018-04-22T07:44:41.166Z,23.2
2018-04-22T07:45:31.807Z,23.3
2018-04-22T07:46:21.389Z,23.5
2018-04-22T07:47:11.670Z,23.6
2018-04-22T07:48:01.440Z,23.8
2018-04-22T07:48:51.115Z,23.9
2018-04-22T07:49:41.860Z,24
2018-04-22T07:50:31.712Z,24.1
2018-04-22T07:51:21.705Z,24.3
2018-04-22T07:52:12.324Z,24.4
2018-04-22T07:53:02.095Z,24.5
2018-04-22T07:53:51.913Z,24.6
2018-04-22T07:54:42.025Z,24.8
2018-04-22T07:55:32.000Z,24.9
2018-04-22T07:56:21.873Z,25.1
2018-04-22T07:57:12.405Z,25.2
2018-04-22T07:58:02.496Z,25.3
2018-04-22T07:58:51.968Z,25.4
2018-04-22T07:59:42.042Z,25.6
2018-04-22T08:00:31.901Z,25.8
2018-04-22T08:01:22.184Z,25.9
2018-04-22T08:02:12.803Z,26
2018-04-22T08:03:02.879Z,26.1
2018-04-22T08:03:52.654Z,26.3
2018-04-22T08:04:43.261Z,26.4
2018-04-22T08:05:32.767Z,26.6
2018-04-22T08:06:23.109Z,26.7
2018-04-22T08:07:13.469Z,26.8
2018-04-22T08:08:03.253Z,26.9
2018-04-22T08:08:53.609Z,27.1
2018-04-22T08:09:43.382Z,27.2
2018-04-22T08:10:33.728Z,27.4
2018-04-22T08:11:23.503Z,27.5
2018-04-22T08:12:13.551Z,27.6
2018-04-22T08:13:03.912Z,27.8
2018-04-22T08:13:53.473Z,27.9
2018-04-22T08:14:43.782Z,28
2018-04-22T08:15:33.846Z,28.1
2018-04-22T08:16:23.681Z,28.3
2018-04-22T08:17:14.252Z,28.4
2018-04-22T08:18:04.029Z,28.5
2018-04-22T08:18:54.069Z,28.7
2018-04-22T08:19:43.425Z,28.8
2018-04-22T08:20:33.381Z,28.9
2018-04-22T08:21:24.552Z,29.1
2018-04-22T08:22:14.351Z,29.2
2018-04-22T08:23:03.841Z,29.4
2018-04-22T08:23:54.209Z,29.4
2018-04-22T08:24:44.803Z,29.6
2018-04-22T08:25:34.626Z,29.8
2018-04-22T08:26:24.669Z,29.8
2018-04-22T08:27:15.026Z,30
2018-04-22T08:28:04.511Z,30.1
2018-04-22T08:28:54.896Z,30.3
2018-04-22T08:29:45.211Z,30.4
2018-04-22T08:30:34.997Z,30.5
2018-04-22T08:31:24.849Z,30.6
2018-04-22T08:32:15.126Z,30.8
2018-04-22T08:33:04.915Z,30.9
2018-04-22T08:33:55.826Z,31.1
2018-04-22T08:34:45.575Z,31.2
2018-04-22T08:35:35.378Z,31.3
2018-04-22T08:36:25.223Z,31.4
2018-04-22T08:37:15.525Z,31.6
2018-04-22T08:38:05.867Z,31.8
2018-04-22T08:38:55.888Z,31.9
2018-04-22T08:39:45.480Z,32
2018-04-22T08:40:35.203Z,32.1
2018-04-22T08:41:25.361Z,32.3
2018-04-22T08:42:15.704Z,32.4
2018-04-22T08:43:05.693Z,32.5
2018-04-22T08:43:55.983Z,32.7
2018-04-22T08:44:46.363Z,32.8
2018-04-22T08:45:36.148Z,32.9
2018-04-22T08:46:26.248Z,33.1
2018-04-22T08:47:16.563Z,33.2
2018-04-22T08:48:06.667Z,33.3
2018-04-22T08:48:56.687Z,33.4
2018-04-22T08:49:46.468Z,33.6
2018-04-22T08:50:36.997Z,33.7
2018-04-22T08:51:26.608Z,33.9
2018-04-22T08:52:16.193Z,33.9
2018-04-22T08:53:07.004Z,34.1
2018-04-22T08:53:57.067Z,34.3
2018-04-22T08:54:46.603Z,34.4
2018-04-22T08:55:37.197Z,34.5
2018-04-22T08:56:27.024Z,34.6
2018-04-22T08:57:17.071Z,34.8
2018-04-22T08:58:07.461Z,34.9
2018-04-22T08:58:57.506Z,35
2018-04-22T08:59:47.532Z,35.1
2018-04-22T09:00:37.047Z,35.3
2018-04-22T09:01:27.380Z,35.4
2018-04-22T09:02:17.706Z,35.5
2018-04-22T09:03:07.799Z,35.6
2018-04-22T09:03:57.862Z,35.8
2018-04-22T09:04:47.343Z,35.9
2018-04-22T09:05:37.980Z,36.1
2018-04-22T09:06:28.050Z,36.1
2018-04-22T09:07:17.821Z,36.3
2018-04-22T09:08:08.184Z,36.4
2018-04-22T09:08:58.208Z,36.5
2018-04-22T09:09:48.352Z,36.7
2018-04-22T09:10:38.381Z,36.8
2018-04-22T09:11:28.439Z,36.9
2018-04-22T09:12:17.949Z,37.1
2018-04-22T09:13:08.037Z,37.1
2018-04-22T09:13:58.649Z,37.3
2018-04-22T09:14:48.162Z,37.4
2018-04-22T09:15:38.759Z,37.5
2018-04-22T09:16:29.268Z,37.7
2018-04-22T09:17:18.323Z,37.8
2018-04-22T09:18:08.994Z,37.9
2018-04-22T09:18:59.020Z,38
2018-04-22T09:19:49.083Z,38.2
2018-04-22T09:20:38.883Z,38.3
2018-04-22T09:21:28.929Z,38.4
2018-04-22T09:22:18.818Z,38.6
2018-04-22T09:23:09.086Z,38.7
2018-04-22T09:23:59.416Z,38.8
2018-04-22T09:24:49.476Z,38.9
2018-04-22T09:25:39.000Z,39.1
2018-04-22T09:26:29.346Z,39.2
2018-04-22T09:27:19.698Z,39.3
2018-04-22T09:28:09.476Z,39.4
2018-04-22T09:28:59.777Z,39.6
2018-04-22T09:29:49.302Z,39.7
2018-04-22T09:30:39.165Z,39.8
2018-04-22T09:31:29.436Z,39.9
2018-04-22T09:32:19.772Z,40.1
2018-04-22T09:33:10.408Z,40.2
2018-04-22T09:34:00.210Z,40.3
2018-04-22T09:34:50.237Z,40.4
2018-04-22T09:35:40.047Z,40.6
2018-04-22T09:36:30.398Z,40.7
2018-04-22T09:37:19.876Z,40.8
2018-04-22T09:38:10.520Z,40.9
2018-04-22T09:39:00.560Z,41.1
2018-04-22T09:39:50.376Z,41.2
2018-04-22T09:40:40.685Z,41.3
2018-04-22T09:41:30.801Z,41.4
2018-04-22T09:42:20.552Z,41.6
2018-04-22T09:43:11.088Z,41.7
2018-04-22T09:44:00.973Z,41.8
2018-04-22T09:44:51.008Z,41.9
2018-04-22T09:45:41.075Z,42.1
2018-04-22T09:46:31.130Z,42.2
2018-04-22T09:47:20.991Z,42.3
2018-04-22T09:48:11.319Z,42.4
2018-04-22T09:49:01.065Z,42.6
2018-04-22T09:49:51.676Z,42.7
2018-04-22T09:50:40.915Z,42.8
2018-04-22T09:51:31.570Z,42.9
2018-04-22T09:52:21.611Z,43.1
2018-04-22T09:53:11.711Z,43.2
2018-04-22T09:54:01.439Z,43.3
2018-04-22T09:54:51.557Z,43.4
2018-04-22T09:55:41.974Z,43.6
2018-04-22T09:56:31.374Z,43.7
2018-04-22T09:57:21.756Z,43.8
2018-04-22T09:58:12.057Z,43.9
2018-04-22T09:59:01.916Z,44.1
2018-04-22T09:59:52.234Z,44.1
2018-04-22T10:00:42.277Z,44.3
2018-04-22T10:01:31.755Z,44.4
2018-04-22T10:02:22.399Z,44.5
2018-04-22T10:03:12.432Z,44.6
2018-04-22T10:04:02.239Z,44.8
2018-04-22T10:04:52.532Z,44.8
2018-04-22T10:05:42.644Z,44.9
2018-04-22T10:06:32.782Z,45.1
2018-04-22T10:07:22.495Z,45.2
2018-04-22T10:08:12.894Z,45.3
2018-04-22T10:09:02.907Z,45.4
2018-04-22T10:09:52.975Z,45.5
2018-04-22T10:10:42.756Z,45.6
2018-04-22T10:11:32.857Z,45.8
2018-04-22T10:12:23.157Z,45.9
2018-04-22T10:13:13.228Z,46
2018-04-22T10:14:03.103Z,46.1
2018-04-22T10:14:52.841Z,46.2
2018-04-22T10:15:43.430Z,46.3
2018-04-22T10:16:33.595Z,46.4
2018-04-22T10:17:23.564Z,46.6
2018-04-22T10:18:13.104Z,46.7
2018-04-22T10:19:02.945Z,46.8
2018-04-22T10:19:53.027Z,46.9
2018-04-22T10:20:43.845Z,47
2018-04-22T10:21:33.905Z,47.1
2018-04-22T10:22:23.691Z,47.3
2018-04-22T10:23:13.745Z,47.3
2018-04-22T10:24:03.801Z,47.4
2018-04-22T10:24:53.867Z,47.6
2018-04-22T10:25:43.932Z,47.6
2018-04-22T10:26:34.296Z,47.8
2018-04-22T10:27:24.370Z,47.9
2018-04-22T10:28:14.130Z,48
2018-04-22T10:29:03.935Z,48.1
2018-04-22T10:29:54.554Z,48.3
2018-04-22T10:30:44.030Z,48.3
2018-04-22T10:31:34.127Z,48.4
2018-04-22T10:32:24.736Z,48.6
2018-04-22T10:33:14.790Z,48.6
2018-04-22T10:34:04.875Z,48.8
2018-04-22T10:34:54.119Z,48.9
2018-04-22T10:35:44.733Z,48.9
2018-04-22T10:36:35.247Z,49.1
2018-04-22T10:37:24.584Z,49.2
2018-04-22T10:38:15.185Z,49.3
2018-04-22T10:39:04.710Z,49.4
2018-04-22T10:39:55.325Z,49.5
2018-04-22T10:40:45.103Z,49.6
2018-04-22T10:41:35.496Z,49.7
2018-04-22T10:42:25.246Z,49.8
2018-04-22T10:43:15.587Z,49.9
2018-04-22T10:44:05.652Z,50
2018-04-22T10:44:55.454Z,50.1
2018-04-22T10:45:44.941Z,50.2
2018-04-22T10:46:35.880Z,50.3
2018-04-22T10:47:25.664Z,50.4
2018-04-22T10:48:15.987Z,50.5
2018-04-22T10:49:05.472Z,50.6
2018-04-22T10:49:55.861Z,50.7
2018-04-22T10:50:46.169Z,50.8
2018-04-22T10:51:36.227Z,50.9
2018-04-22T10:52:26.283Z,51
2018-04-22T10:53:16.357Z,51.1
2018-04-22T10:54:06.503Z,51.2
2018-04-22T10:54:56.512Z,51.3
2018-04-22T10:55:46.277Z,51.4
2018-04-22T10:56:36.066Z,51.5
2018-04-22T10:57:26.205Z,51.6
2018-04-22T10:58:16.203Z,51.7
2018-04-22T10:59:06.385Z,51.8
2018-04-22T10:59:57.294Z,51.8
2018-04-22T11:01:36.726Z,52
2018-04-22T11:02:27.104Z,52.1
2018-04-22T11:03:16.857Z,52.2
2018-04-22T11:04:06.679Z,52.3
2018-04-22T11:04:56.842Z,52.3
2018-04-22T11:05:47.080Z,52.4
2018-04-22T11:06:37.424Z,52.5
2018-04-22T11:07:27.471Z,52.6
2018-04-22T11:08:17.261Z,52.7
2018-04-22T11:09:07.340Z,52.8
2018-04-22T11:09:57.375Z,52.9